Terminal Aerodrome Forecast
Issued by NWS State College, PA

Home | Current Version | Previous Version | Text Only | Print | Product List | Glossary On
Versions: 1 2 3 4 5 6 7 8 9 10 11 12 13 14 15 16 17 18 19 20 21 22 23 24 25 26 27 28 29 30 31 32 33
000
FTUS41 KCTP 172322
TAFMDT
TAF
KMDT 172322Z 1800/1824 14009KT P6SM FEW035 BKN250
     FM180600 14004KT 4SM BR OVC100
     FM181500 20005KT P6SM SCT040 BKN200
     FM181900 21005KT P6SM VCSH BKN045=

USA.gov is the U.S. government's official web portal to all federal, state and local government web resources and services.